Time;durP1;ratioP1;P1;durP2;ratioP2;P2;SDS_P1;SDS_P2;PMS_P1;PMS_P2;Temp;Humidity;BMP_temperature;BMP_pressure;BME280_temperature;BME280_humidity;BME280_pressure;Samples;Min_cycle;Max_cycle;Signal;HPM_P1;HPM_P2
2022/11/25 00:02:21;;;;;;;17.98;4.03;;;8.80;99.90;;;;;;5067498;28;20549;-77
2022/11/25 00:04:47;;;;;;;17.75;4.18;;;8.80;99.90;;;;;;5072502;28;20546;-80
2022/11/25 00:07:13;;;;;;;15.23;3.53;;;8.80;99.90;;;;;;5094888;28;20178;-80
2022/11/25 00:09:38;;;;;;;18.55;4.57;;;8.80;99.90;;;;;;5076073;28;20719;-79
2022/11/25 00:12:04;;;;;;;16.40;3.55;;;8.80;99.90;;;;;;5082594;28;20186;-80
2022/11/25 00:14:30;;;;;;;15.45;3.85;;;8.80;99.90;;;;;;5061623;28;20589;-79
2022/11/25 00:16:56;;;;;;;16.10;3.83;;;8.70;99.90;;;;;;5073394;28;20219;-82
2022/11/25 00:19:21;;;;;;;19.02;4.20;;;8.80;99.90;;;;;;5054242;28;20195;-78
2022/11/25 00:21:47;;;;;;;13.43;3.72;;;8.80;99.90;;;;;;5054421;28;20258;-78
2022/11/25 00:24:14;;;;;;;16.83;4.05;;;8.80;99.90;;;;;;5065566;28;20190;-81
2022/11/25 00:26:40;;;;;;;17.48;3.63;;;8.80;99.90;;;;;;5060617;28;20304;-77
2022/11/25 00:29:07;;;;;;;17.58;3.95;;;8.80;99.90;;;;;;5063734;28;20281;-77
2022/11/25 00:31:36;;;;;;;22.05;4.57;;;8.80;99.90;;;;;;5071983;28;20309;-76
2022/11/25 00:34:02;;;;;;;11.00;3.00;;;8.80;99.90;;;;;;5058381;28;20186;-78
2022/11/25 00:36:30;;;;;;;14.27;3.42;;;8.90;99.90;;;;;;5056856;28;20222;-79
2022/11/25 00:39:05;;;;;;;15.13;3.92;;;8.90;99.90;;;;;;5072148;28;20186;-76
2022/11/25 00:44:35;;;;;;;19.85;3.63;;;8.90;99.90;;;;;;5081692;28;20182;-76
2022/11/25 00:47:29;;;;;;;19.08;4.15;;;8.90;99.90;;;;;;5072204;28;20257;-80
2022/11/25 00:49:55;;;;;;;15.43;3.80;;;8.90;99.90;;;;;;5052092;28;20215;-77
2022/11/25 00:52:24;;;;;;;14.82;3.60;;;8.90;99.90;;;;;;5056627;28;20594;-77
2022/11/25 00:54:50;;;;;;;18.98;4.00;;;8.90;99.90;;;;;;5069016;28;20208;-80
2022/11/25 00:57:18;;;;;;;25.35;4.28;;;9.00;99.90;;;;;;5078857;28;20771;-78
2022/11/25 00:59:44;;;;;;;19.35;4.20;;;8.90;99.90;;;;;;5088647;28;20233;-76
2022/11/25 01:02:12;;;;;;;18.08;3.72;;;8.90;99.90;;;;;;5070649;28;20182;-78
2022/11/25 01:04:37;;;;;;;17.80;4.35;;;9.00;99.90;;;;;;5074951;28;20523;-77
2022/11/25 01:07:04;;;;;;;18.67;4.30;;;9.00;99.90;;;;;;5076769;28;20605;-77
2022/11/25 01:09:29;;;;;;;22.35;4.93;;;9.00;99.90;;;;;;5062166;28;20650;-77
2022/11/25 01:11:56;;;;;;;17.45;4.50;;;9.00;99.90;;;;;;5084115;28;20221;-79
2022/11/25 01:14:23;;;;;;;22.40;4.80;;;9.00;99.90;;;;;;5088336;28;20255;-76
2022/11/25 01:16:50;;;;;;;18.75;4.30;;;8.90;99.90;;;;;;5062271;28;20260;-82
2022/11/25 01:19:17;;;;;;;19.10;4.25;;;9.00;99.90;;;;;;5060669;28;20613;-76
2022/11/25 01:21:43;;;;;;;18.38;3.67;;;9.00;99.90;;;;;;5070852;28;20190;-77
2022/11/25 01:24:13;;;;;;;13.93;4.32;;;9.00;99.90;;;;;;5071723;28;20202;-77
2022/11/25 01:26:39;;;;;;;18.13;4.78;;;9.00;99.90;;;;;;5066841;28;20182;-82
2022/11/25 01:29:07;;;;;;;13.50;4.28;;;9.00;99.90;;;;;;5062500;28;20187;-79
2022/11/25 01:31:36;;;;;;;18.77;4.95;;;8.90;99.90;;;;;;5072141;28;20182;-78
2022/11/25 01:34:07;;;;;;;21.08;4.93;;;9.00;99.90;;;;;;5071911;28;20223;-77
2022/11/25 01:36:34;;;;;;;23.83;5.03;;;8.90;99.90;;;;;;5053374;28;21511;-79
2022/11/25 01:39:02;;;;;;;20.23;4.63;;;8.90;99.90;;;;;;5077947;28;20174;-77
2022/11/25 01:41:31;;;;;;;24.45;5.38;;;8.90;99.90;;;;;;5072746;28;20256;-77
2022/11/25 01:44:11;;;;;;;15.57;4.88;;;8.90;99.90;;;;;;5071004;28;20183;-80
2022/11/25 01:46:55;;;;;;;16.35;4.60;;;8.90;99.90;;;;;;5069789;28;20543;-78
2022/11/25 01:49:48;;;;;;;19.30;4.35;;;8.80;99.90;;;;;;5087648;28;20178;-78
2022/11/25 01:52:26;;;;;;;16.88;4.88;;;8.80;99.90;;;;;;5070467;28;21050;-78
2022/11/25 01:55:02;;;;;;;20.60;4.45;;;8.80;99.90;;;;;;5083123;28;20170;-78
2022/11/25 01:57:37;;;;;;;17.17;4.85;;;8.80;99.90;;;;;;5070587;28;20182;-78
2022/11/25 02:00:05;;;;;;;22.70;4.85;;;8.80;99.90;;;;;;5059790;28;20653;-78
2022/11/25 02:02:43;;;;;;;19.60;4.45;;;8.80;99.90;;;;;;5069652;28;20193;-78
2022/11/25 02:05:13;;;;;;;18.38;5.03;;;8.80;99.90;;;;;;5078720;28;20198;-77
2022/11/25 02:07:42;;;;;;;19.38;4.82;;;8.80;99.90;;;;;;5084558;28;20315;-80
2022/11/25 02:10:15;;;;;;;21.10;4.55;;;8.80;99.90;;;;;;5074514;28;20183;-78
2022/11/25 02:12:44;;;;;;;25.33;5.18;;;8.80;99.90;;;;;;5070083;28;20179;-77
2022/11/25 02:15:11;;;;;;;20.33;5.18;;;8.80;99.90;;;;;;5072586;28;20219;-77
2022/11/25 02:17:37;;;;;;;20.27;5.10;;;8.80;99.90;;;;;;5065689;28;20321;-78
2022/11/25 02:20:07;;;;;;;22.67;4.95;;;8.90;99.90;;;;;;5073316;28;20532;-80
2022/11/25 02:22:57;;;;;;;26.65;4.70;;;8.80;99.90;;;;;;5057184;28;20204;-78
2022/11/25 02:25:33;;;;;;;26.52;5.63;;;8.90;99.90;;;;;;5077348;28;20675;-78
2022/11/25 02:28:09;;;;;;;20.02;5.05;;;8.90;99.90;;;;;;5083686;28;20174;-78
2022/11/25 02:30:37;;;;;;;17.05;4.65;;;8.90;99.90;;;;;;5068457;28;20174;-78
2022/11/25 02:33:03;;;;;;;22.45;4.88;;;8.90;99.90;;;;;;5074114;28;20193;-78
2022/11/25 02:35:57;;;;;;;18.42;4.88;;;8.90;99.90;;;;;;5075202;28;20260;-78
2022/11/25 02:38:31;;;;;;;15.00;4.70;;;8.80;99.90;;;;;;5049214;28;20191;-80
2022/11/25 02:41:14;;;;;;;17.33;4.93;;;8.80;99.90;;;;;;5089149;28;20668;-78
2022/11/25 02:43:43;;;;;;;21.67;5.07;;;8.80;99.90;;;;;;5073590;28;20182;-77
2022/11/25 02:46:14;;;;;;;21.05;5.47;;;8.80;99.90;;;;;;5075030;28;20183;-78
2022/11/25 02:48:41;;;;;;;16.35;4.90;;;8.80;99.90;;;;;;5059936;28;20186;-78
2022/11/25 02:51:09;;;;;;;22.92;5.18;;;8.80;99.90;;;;;;5074908;28;20179;-78
2022/11/25 02:53:35;;;;;;;19.33;5.28;;;8.80;99.90;;;;;;5073951;28;20178;-78
2022/11/25 02:56:01;;;;;;;19.00;4.82;;;8.70;99.90;;;;;;5091797;28;20276;-77
2022/11/25 02:58:28;;;;;;;13.63;4.30;;;8.80;99.90;;;;;;5063938;28;20256;-80
2022/11/25 03:00:54;;;;;;;20.20;5.40;;;8.80;99.90;;;;;;5055447;28;20709;-78
2022/11/25 03:03:20;;;;;;;16.60;4.60;;;8.80;99.90;;;;;;5073969;28;20178;-80
2022/11/25 03:05:46;;;;;;;15.60;4.78;;;8.80;99.90;;;;;;5057470;28;20241;-79
2022/11/25 03:08:12;;;;;;;19.20;5.18;;;8.80;99.90;;;;;;5062507;28;20190;-80
2022/11/25 03:10:38;;;;;;;19.60;5.22;;;8.80;99.90;;;;;;5068556;28;20583;-77
2022/11/25 03:13:06;;;;;;;21.35;5.22;;;8.80;99.90;;;;;;5082299;28;20274;-78
2022/11/25 03:15:32;;;;;;;21.45;5.72;;;8.80;99.90;;;;;;5072477;28;20301;-77
2022/11/25 03:18:01;;;;;;;18.42;4.72;;;8.80;99.90;;;;;;5069483;28;20194;-79
2022/11/25 03:20:27;;;;;;;22.88;5.57;;;8.80;99.90;;;;;;5040096;28;20555;-79
2022/11/25 03:22:53;;;;;;;21.65;5.95;;;8.80;99.90;;;;;;5061455;28;20193;-78
2022/11/25 03:25:19;;;;;;;20.75;5.10;;;8.80;99.90;;;;;;5074231;28;20228;-78
2022/11/25 03:27:48;;;;;;;24.98;5.47;;;8.80;99.90;;;;;;5089123;28;20669;-78
2022/11/25 03:30:18;;;;;;;17.73;5.50;;;8.80;99.90;;;;;;5058682;28;20179;-78
2022/11/25 03:32:45;;;;;;;20.00;6.20;;;8.80;99.90;;;;;;5066317;28;20175;-77
2022/11/25 03:35:12;;;;;;;27.17;6.53;;;8.80;99.90;;;;;;5074143;28;20352;-77
2022/11/25 03:37:38;;;;;;;18.35;5.82;;;8.80;99.90;;;;;;5068124;28;20175;-77
2022/11/25 03:40:08;;;;;;;27.45;6.90;;;8.90;99.90;;;;;;5063720;28;20216;-78
2022/11/25 03:42:34;;;;;;;20.88;6.18;;;8.90;99.90;;;;;;5062110;28;20680;-76
2022/11/25 03:45:01;;;;;;;25.48;6.53;;;8.90;99.90;;;;;;5073062;28;20174;-77
2022/11/25 03:47:27;;;;;;;26.52;7.18;;;8.90;99.90;;;;;;5073431;28;20614;-77
2022/11/25 03:49:53;;;;;;;21.30;7.28;;;8.90;99.90;;;;;;5070365;28;20203;-77
2022/11/25 03:52:18;;;;;;;24.55;6.45;;;8.90;99.90;;;;;;5057895;28;20237;-80
2022/11/25 03:54:44;;;;;;;23.02;6.65;;;8.90;99.90;;;;;;5068194;28;20193;-79
2022/11/25 03:57:15;;;;;;;18.95;6.20;;;8.90;99.90;;;;;;5088640;28;20669;-77
2022/11/25 03:59:41;;;;;;;25.52;6.75;;;8.90;99.90;;;;;;5074641;28;20230;-78
2022/11/25 04:02:07;;;;;;;29.52;7.28;;;9.00;99.90;;;;;;5057973;28;20192;-78
2022/11/25 04:04:34;;;;;;;21.42;6.75;;;8.90;99.90;;;;;;5073009;28;20225;-77
2022/11/25 04:07:00;;;;;;;19.05;7.13;;;9.00;99.90;;;;;;5091687;28;20217;-77
2022/11/25 04:09:26;;;;;;;19.95;7.32;;;9.00;99.90;;;;;;5071622;28;20179;-77
2022/11/25 04:14:47;;;;;;;20.13;7.18;;;8.90;99.90;;;;;;5053092;28;20187;-77
2022/11/25 04:17:13;;;;;;;21.17;8.07;;;9.00;99.90;;;;;;5064140;28;20287;-76
2022/11/25 04:19:39;;;;;;;24.48;7.78;;;9.00;99.90;;;;;;5073226;28;20186;-77
2022/11/25 04:22:05;;;;;;;22.27;8.25;;;9.00;99.90;;;;;;5063618;28;20186;-78
2022/11/25 04:24:35;;;;;;;25.90;8.50;;;9.00;99.90;;;;;;5067234;28;20208;-76
2022/11/25 04:27:02;;;;;;;27.35;8.93;;;8.90;99.90;;;;;;5063051;28;20238;-77
2022/11/25 04:29:28;;;;;;;27.73;8.85;;;9.00;99.90;;;;;;5071468;28;20211;-76
2022/11/25 04:31:55;;;;;;;26.60;8.07;;;8.90;99.90;;;;;;5069259;28;20589;-80
2022/11/25 04:34:21;;;;;;;24.42;8.40;;;8.90;99.90;;;;;;5060564;28;20198;-76
2022/11/25 04:36:49;;;;;;;20.48;8.55;;;9.00;99.90;;;;;;5071776;28;20217;-76
2022/11/25 04:39:15;;;;;;;27.58;9.60;;;9.00;99.90;;;;;;5069855;28;20179;-76
2022/11/25 04:41:41;;;;;;;25.13;9.02;;;9.00;99.90;;;;;;5070966;28;20653;-76
2022/11/25 04:44:08;;;;;;;23.95;8.85;;;8.90;99.90;;;;;;5055893;28;20210;-77
2022/11/25 04:46:39;;;;;;;26.40;9.80;;;8.90;99.90;;;;;;5061272;28;20270;-76
2022/11/25 04:49:04;;;;;;;27.70;9.38;;;8.90;99.90;;;;;;5069319;28;20537;-77
2022/11/25 04:51:31;;;;;;;30.60;9.55;;;8.90;99.90;;;;;;5072471;28;20598;-77
2022/11/25 04:54:00;;;;;;;29.25;9.70;;;8.90;99.90;;;;;;5074124;28;20278;-77
2022/11/25 04:56:26;;;;;;;24.90;9.45;;;9.00;99.90;;;;;;5082411;28;20297;-76
2022/11/25 05:01:42;;;;;;;30.25;9.88;;;9.00;99.90;;;;;;5088577;28;20182;-76
2022/11/25 05:04:23;;;;;;;29.98;10.00;;;9.00;99.90;;;;;;5072923;28;20305;-76
2022/11/25 05:06:50;;;;;;;30.80;9.48;;;9.00;99.90;;;;;;5072687;28;20280;-77
2022/11/25 05:09:17;;;;;;;26.40;9.48;;;9.00;99.90;;;;;;5077210;28;20241;-78
2022/11/25 05:11:49;;;;;;;28.60;9.93;;;9.00;99.90;;;;;;5052155;28;20183;-76
2022/11/25 05:14:15;;;;;;;25.35;10.07;;;9.00;99.90;;;;;;5068630;28;20191;-79
2022/11/25 05:16:40;;;;;;;33.35;9.95;;;9.00;99.90;;;;;;5070468;28;20217;-78
2022/11/25 05:19:08;;;;;;;27.98;9.90;;;9.00;99.90;;;;;;5059194;28;20186;-80
2022/11/25 05:21:34;;;;;;;28.27;10.52;;;9.00;99.90;;;;;;5045004;28;20210;-76
2022/11/25 05:24:00;;;;;;;23.70;10.20;;;9.00;99.90;;;;;;5054894;28;20191;-77
2022/11/25 05:26:29;;;;;;;30.85;10.88;;;9.00;99.90;;;;;;5078806;28;20281;-77
2022/11/25 05:28:57;;;;;;;32.28;11.00;;;9.00;99.90;;;;;;5086664;28;20216;-80
2022/11/25 05:31:23;;;;;;;31.30;10.88;;;9.00;99.90;;;;;;5072308;28;20190;-77
2022/11/25 05:33:49;;;;;;;34.20;12.50;;;9.00;99.90;;;;;;5070919;28;20186;-77
2022/11/25 05:36:16;;;;;;;28.48;10.75;;;9.00;99.90;;;;;;5072971;28;20271;-80
2022/11/25 05:38:45;;;;;;;30.63;11.35;;;9.10;99.90;;;;;;5040641;28;20348;-78
2022/11/25 05:41:14;;;;;;;27.95;11.93;;;9.10;99.90;;;;;;5071852;28;20572;-77
2022/11/25 05:43:43;;;;;;;25.45;11.60;;;9.10;99.90;;;;;;5071803;28;20201;-77
2022/11/25 05:46:09;;;;;;;32.67;13.68;;;9.10;99.90;;;;;;5068344;28;20186;-77
2022/11/25 05:48:40;;;;;;;34.28;12.07;;;9.10;99.90;;;;;;5083135;28;20174;-77
2022/11/25 05:51:08;;;;;;;31.00;11.27;;;9.10;99.90;;;;;;5064850;28;20745;-78
2022/11/25 05:53:34;;;;;;;32.40;12.05;;;9.10;99.90;;;;;;5066110;28;20187;-77
2022/11/25 05:56:04;;;;;;;30.10;11.25;;;9.10;99.90;;;;;;5087721;28;20233;-81
2022/11/25 05:58:49;;;;;;;31.92;11.40;;;9.00;99.90;;;;;;5057977;28;20863;-77
2022/11/25 06:01:16;;;;;;;31.40;11.93;;;9.00;99.90;;;;;;5068672;28;20309;-77
2022/11/25 06:03:43;;;;;;;25.83;11.43;;;9.10;99.90;;;;;;5064455;28;20550;-77
2022/11/25 06:06:10;;;;;;;29.02;11.48;;;9.00;99.90;;;;;;5097962;28;20182;-77
2022/11/25 06:08:37;;;;;;;32.05;12.00;;;9.00;99.90;;;;;;5062154;28;20628;-79
2022/11/25 06:11:09;;;;;;;31.15;11.57;;;9.00;99.90;;;;;;5076010;28;20232;-82
2022/11/25 06:13:36;;;;;;;29.75;12.60;;;9.10;99.90;;;;;;5064506;28;20187;-79
2022/11/25 06:16:10;;;;;;;28.33;12.10;;;9.10;99.90;;;;;;5063791;28;20211;-78
2022/11/25 06:18:36;;;;;;;31.48;12.52;;;9.10;99.90;;;;;;5057360;28;20235;-80
2022/11/25 06:21:06;;;;;;;28.17;12.98;;;9.10;99.90;;;;;;5084327;28;20213;-78
2022/11/25 06:23:32;;;;;;;29.52;12.48;;;9.10;99.90;;;;;;5058085;28;20180;-78
2022/11/25 06:26:06;;;;;;;33.85;12.57;;;9.10;99.90;;;;;;5051293;28;20194;-81
2022/11/25 06:28:34;;;;;;;27.50;12.00;;;9.10;99.90;;;;;;5080309;28;20186;-78
2022/11/25 06:31:12;;;;;;;26.00;11.93;;;9.10;99.90;;;;;;5070082;28;20240;-77
2022/11/25 06:33:46;;;;;;;27.33;11.30;;;9.10;99.90;;;;;;5056609;28;20546;-78
2022/11/25 06:36:16;;;;;;;32.20;12.45;;;9.20;99.90;;;;;;5050408;28;20211;-78
2022/11/25 06:38:43;;;;;;;28.15;12.23;;;9.20;99.90;;;;;;5068517;28;20623;-78
2022/11/25 06:41:09;;;;;;;30.80;12.45;;;9.10;99.90;;;;;;5069659;28;20196;-78
2022/11/25 06:43:35;;;;;;;29.50;12.10;;;9.20;99.90;;;;;;5060040;28;20187;-78
2022/11/25 06:46:02;;;;;;;22.02;11.32;;;9.20;99.90;;;;;;5071288;28;20664;-77
2022/11/25 06:48:28;;;;;;;28.83;12.07;;;9.20;99.90;;;;;;5070811;28;20190;-77
2022/11/25 06:50:56;;;;;;;27.08;11.70;;;9.20;99.90;;;;;;5071357;28;20515;-78
2022/11/25 06:53:22;;;;;;;33.63;11.57;;;9.20;99.90;;;;;;5060681;28;20187;-77
2022/11/25 06:55:48;;;;;;;25.10;11.57;;;9.20;99.90;;;;;;5063262;28;20276;-78
2022/11/25 06:58:13;;;;;;;28.48;11.35;;;9.30;99.90;;;;;;5062679;28;20190;-77
2022/11/25 07:00:39;;;;;;;29.02;11.43;;;9.20;99.90;;;;;;5058815;28;20752;-78
2022/11/25 07:03:05;;;;;;;25.17;10.65;;;9.30;99.90;;;;;;5059730;28;20193;-78
2022/11/25 07:05:30;;;;;;;32.45;11.75;;;9.30;99.90;;;;;;5074169;28;20189;-81
2022/11/25 07:07:56;;;;;;;31.77;10.75;;;9.30;99.90;;;;;;5060847;28;20179;-77
2022/11/25 07:10:22;;;;;;;22.10;10.43;;;9.30;99.90;;;;;;5055338;28;20241;-77
2022/11/25 07:12:48;;;;;;;26.70;10.65;;;9.30;99.90;;;;;;5053079;28;20201;-80
2022/11/25 07:15:13;;;;;;;25.05;10.38;;;9.30;99.90;;;;;;5059923;28;20708;-78
2022/11/25 07:17:39;;;;;;;25.17;9.40;;;9.30;99.90;;;;;;5054213;28;20193;-76
2022/11/25 07:20:06;;;;;;;28.25;9.25;;;9.30;99.90;;;;;;5067168;28;20195;-77
2022/11/25 07:22:31;;;;;;;20.40;9.55;;;9.30;99.90;;;;;;5079298;28;20561;-75
2022/11/25 07:24:57;;;;;;;23.85;8.52;;;9.30;99.90;;;;;;5060615;28;20257;-76
2022/11/25 07:27:23;;;;;;;20.27;8.57;;;9.30;99.90;;;;;;5071801;28;20201;-77
2022/11/25 07:29:48;;;;;;;22.65;8.93;;;9.30;99.90;;;;;;5060863;28;20199;-74
2022/11/25 07:32:14;;;;;;;21.10;8.95;;;9.30;99.90;;;;;;5052652;28;20205;-75
2022/11/25 07:34:40;;;;;;;21.13;8.65;;;9.30;99.90;;;;;;5089777;28;20170;-75
2022/11/25 07:37:06;;;;;;;22.77;8.15;;;9.40;99.90;;;;;;5058902;28;20228;-75
2022/11/25 07:39:32;;;;;;;21.75;8.18;;;9.40;99.90;;;;;;5069087;28;20269;-79
2022/11/25 07:41:58;;;;;;;16.17;7.88;;;9.40;99.90;;;;;;5059806;28;20516;-75
2022/11/25 07:44:24;;;;;;;21.80;8.20;;;9.40;99.90;;;;;;5076168;28;20615;-76
2022/11/25 07:46:57;;;;;;;16.98;7.53;;;9.40;99.90;;;;;;5074392;28;20193;-77
2022/11/25 07:49:25;;;;;;;22.33;7.90;;;9.40;99.90;;;;;;5086866;28;20619;-82
2022/11/25 07:51:54;;;;;;;21.85;7.78;;;9.40;99.90;;;;;;5061434;28;20194;-75
2022/11/25 07:54:21;;;;;;;19.38;6.75;;;9.40;99.90;;;;;;5069954;28;20191;-81
2022/11/25 07:56:47;;;;;;;19.23;7.00;;;9.40;99.90;;;;;;5065596;28;20292;-75
2022/11/25 07:59:16;;;;;;;18.23;6.93;;;9.40;99.90;;;;;;5063665;28;20241;-77
2022/11/25 08:01:43;;;;;;;18.75;7.75;;;9.40;99.90;;;;;;5050262;28;20298;-76
2022/11/25 08:04:11;;;;;;;16.73;6.43;;;9.40;99.90;;;;;;5059346;28;20198;-76
2022/11/25 08:06:47;;;;;;;15.68;6.15;;;9.40;99.90;;;;;;5071536;28;20269;-75
2022/11/25 08:09:18;;;;;;;13.63;6.65;;;9.50;99.90;;;;;;5064324;28;20186;-76
2022/11/25 08:11:44;;;;;;;17.30;6.35;;;9.50;99.90;;;;;;5073584;28;20187;-78
2022/11/25 08:14:10;;;;;;;18.23;6.15;;;9.60;99.90;;;;;;5063164;28;20207;-76
2022/11/25 08:16:37;;;;;;;26.83;5.78;;;9.70;99.90;;;;;;5076947;28;20207;-76
2022/11/25 08:19:08;;;;;;;17.65;5.40;;;9.70;99.90;;;;;;5060915;28;20212;-76
2022/11/25 08:21:33;;;;;;;15.93;4.75;;;9.80;99.90;;;;;;5060596;28;20623;-75
2022/11/25 08:24:01;;;;;;;14.10;4.80;;;9.90;99.90;;;;;;5070281;28;20282;-76
2022/11/25 08:26:31;;;;;;;11.70;5.05;;;9.90;99.90;;;;;;5072399;28;20194;-77
2022/11/25 08:28:58;;;;;;;14.02;4.95;;;10.20;99.90;;;;;;5070377;28;20195;-81
2022/11/25 08:31:30;;;;;;;17.55;5.72;;;10.40;99.90;;;;;;5067386;28;20221;-77
2022/11/25 08:33:56;;;;;;;15.27;4.88;;;10.80;99.90;;;;;;5069732;28;20248;-76
2022/11/25 08:36:23;;;;;;;15.50;4.57;;;11.10;99.90;;;;;;5072373;28;20297;-76
2022/11/25 08:38:51;;;;;;;10.98;4.68;;;11.30;99.90;;;;;;5069977;28;20183;-77
2022/11/25 08:41:29;;;;;;;14.90;4.57;;;11.60;99.90;;;;;;5072954;28;20221;-76
2022/11/25 08:43:56;;;;;;;13.48;4.80;;;11.80;99.90;;;;;;5063339;28;20201;-79
2022/11/25 08:46:25;;;;;;;11.55;4.72;;;12.00;99.90;;;;;;5069478;28;20186;-76
2022/11/25 08:48:51;;;;;;;14.80;4.63;;;12.10;99.90;;;;;;5065315;28;20199;-78
2022/11/25 08:51:20;;;;;;;11.00;4.40;;;12.30;99.90;;;;;;5066678;28;20210;-78
2022/11/25 08:53:46;;;;;;;10.80;3.88;;;12.40;99.90;;;;;;5071985;28;20245;-77
2022/11/25 08:56:13;;;;;;;12.80;4.00;;;12.50;99.90;;;;;;5071274;28;20241;-77
2022/11/25 08:58:39;;;;;;;9.20;3.75;;;12.60;99.90;;;;;;5068668;28;20249;-77
2022/11/25 09:01:06;;;;;;;11.93;3.90;;;12.70;99.90;;;;;;5067648;28;20217;-77
2022/11/25 09:03:38;;;;;;;12.20;4.07;;;12.80;99.90;;;;;;5066052;28;20190;-77
2022/11/25 09:06:07;;;;;;;12.77;4.32;;;12.90;99.90;;;;;;5059317;28;20265;-78
2022/11/25 09:08:33;;;;;;;8.85;3.95;;;13.00;99.90;;;;;;5071093;28;20182;-77
2022/11/25 09:10:59;;;;;;;10.57;3.70;;;13.10;99.90;;;;;;5072221;28;20236;-78
2022/11/25 09:13:26;;;;;;;10.23;4.30;;;13.20;99.90;;;;;;5070167;28;20185;-79
2022/11/25 09:15:52;;;;;;;12.38;4.40;;;13.30;99.90;;;;;;5059750;28;21533;-80
2022/11/25 09:18:19;;;;;;;11.35;3.85;;;13.30;99.90;;;;;;5068846;28;20186;-77
2022/11/25 09:20:46;;;;;;;14.55;4.15;;;13.50;99.90;;;;;;5071414;28;20170;-76
2022/11/25 09:23:11;;;;;;;11.30;3.80;;;13.50;99.90;;;;;;5062105;28;20190;-77
2022/11/25 09:25:38;;;;;;;10.95;3.90;;;13.60;99.90;;;;;;5073393;28;20187;-76
2022/11/25 09:28:04;;;;;;;10.40;4.10;;;13.70;99.90;;;;;;5081954;28;20256;-76
2022/11/25 09:30:30;;;;;;;12.95;3.65;;;13.80;99.90;;;;;;5071218;28;20190;-79
2022/11/25 09:32:56;;;;;;;10.88;4.20;;;13.90;99.90;;;;;;5064879;28;20932;-76
2022/11/25 09:35:23;;;;;;;11.65;3.90;;;14.00;99.90;;;;;;5070052;28;20193;-76
2022/11/25 09:37:49;;;;;;;11.63;3.78;;;14.10;99.90;;;;;;5070691;28;20324;-74
2022/11/25 09:40:40;;;;;;;11.55;3.53;;;14.20;99.90;;;;;;5072913;28;20194;-74
2022/11/25 09:46:52;;;;;;;12.35;4.13;;;14.50;99.90;;;;;;5058495;28;20738;-75
2022/11/25 09:49:56;;;;;;;13.63;3.90;;;14.70;99.90;;;;;;5081912;28;20178;-75
2022/11/25 09:52:40;;;;;;;10.57;3.60;;;14.80;99.90;;;;;;5071649;28;20198;-76
2022/11/25 09:55:24;;;;;;;11.07;3.08;;;14.90;99.90;;;;;;5070093;28;20181;-77
2022/11/25 09:58:11;;;;;;;10.15;3.92;;;15.00;99.90;;;;;;5066359;28;20179;-75
2022/11/25 10:00:40;;;;;;;9.13;3.42;;;15.10;99.90;;;;;;5070951;28;20274;-76
2022/11/25 10:03:20;;;;;;;10.27;3.15;;;15.20;99.90;;;;;;5069615;28;20661;-75
2022/11/25 10:06:02;;;;;;;9.02;3.20;;;15.30;99.90;;;;;;5084975;28;20215;-76
2022/11/25 10:08:37;;;;;;;8.38;3.35;;;15.40;99.90;;;;;;5059315;28;20188;-82
2022/11/25 10:11:19;;;;;;;11.52;3.28;;;15.50;99.90;;;;;;5057444;28;20206;-75
2022/11/25 10:13:51;;;;;;;8.63;3.25;;;15.60;99.90;;;;;;5062014;28;20201;-75
2022/11/25 10:16:37;;;;;;;10.57;3.30;;;15.70;99.90;;;;;;5052272;28;20202;-77
2022/11/25 10:19:29;;;;;;;10.88;3.13;;;15.90;99.90;;;;;;5068616;28;20198;-76
2022/11/25 10:21:54;;;;;;;9.95;3.35;;;16.00;99.90;;;;;;5068457;28;20661;-82
2022/11/25 10:24:20;;;;;;;9.55;3.47;;;16.10;99.90;;;;;;5067208;28;20182;-76
2022/11/25 10:26:57;;;;;;;9.73;2.90;;;16.20;99.90;;;;;;5066053;28;20269;-74
2022/11/25 10:29:27;;;;;;;11.05;3.10;;;16.20;99.90;;;;;;5069083;28;20179;-75
2022/11/25 10:32:14;;;;;;;8.60;3.67;;;16.20;99.90;;;;;;5069941;28;20236;-75
2022/11/25 10:34:48;;;;;;;13.63;3.97;;;16.30;99.90;;;;;;5064141;28;20174;-78
2022/11/25 10:37:32;;;;;;;8.60;3.20;;;16.40;99.90;;;;;;5081469;28;21195;-75
2022/11/25 10:39:57;;;;;;;9.82;3.20;;;16.40;99.90;;;;;;5070242;28;20182;-76
2022/11/25 10:42:25;;;;;;;8.23;3.10;;;16.30;99.90;;;;;;5069755;28;20668;-75
2022/11/25 10:44:53;;;;;;;12.90;3.20;;;16.30;99.90;;;;;;5070928;28;20193;-78
2022/11/25 10:47:19;;;;;;;11.05;3.30;;;16.10;99.90;;;;;;5067064;28;20278;-75
2022/11/25 10:50:21;;;;;;;8.25;3.40;;;16.00;99.90;;;;;;5084414;28;20266;-75
2022/11/25 10:53:03;;;;;;;11.98;3.42;;;15.90;99.90;;;;;;5069374;28;20539;-75
2022/11/25 10:55:31;;;;;;;10.23;3.13;;;15.90;99.90;;;;;;5075698;28;20635;-75
2022/11/25 10:57:59;;;;;;;13.43;3.65;;;15.80;99.90;;;;;;5071410;28;20174;-75
2022/11/25 11:00:42;;;;;;;11.30;3.97;;;15.90;99.90;;;;;;5074140;28;20212;-81
2022/11/25 11:03:21;;;;;;;12.20;3.35;;;15.80;99.90;;;;;;5084414;28;20274;-75
2022/11/25 11:05:50;;;;;;;7.20;2.90;;;15.80;99.90;;;;;;5070934;28;20183;-76
2022/11/25 11:08:25;;;;;;;9.73;3.58;;;15.80;99.90;;;;;;5065974;28;20235;-76
2022/11/25 11:11:13;;;;;;;10.68;3.22;;;15.80;99.90;;;;;;5072726;28;20170;-75
2022/11/25 11:13:39;;;;;;;9.60;3.30;;;15.80;99.90;;;;;;5058742;28;20646;-79
2022/11/25 11:16:28;;;;;;;12.60;3.67;;;15.80;99.90;;;;;;5072274;28;20649;-79
2022/11/25 11:18:55;;;;;;;13.23;3.08;;;15.80;99.90;;;;;;5065474;28;20182;-75
2022/11/25 11:21:41;;;;;;;9.07;2.92;;;15.90;99.90;;;;;;5069958;28;20226;-76
2022/11/25 11:24:30;;;;;;;11.82;3.15;;;15.90;99.90;;;;;;5065088;28;20186;-76
2022/11/25 11:27:14;;;;;;;10.10;3.33;;;16.00;99.90;;;;;;5057240;28;20299;-77
2022/11/25 11:29:39;;;;;;;12.00;2.97;;;16.00;99.90;;;;;;5069164;28;20203;-76
2022/11/25 11:32:16;;;;;;;9.02;2.65;;;16.10;99.90;;;;;;5063308;28;20213;-77
2022/11/25 11:34:54;;;;;;;13.38;3.17;;;16.20;99.90;;;;;;5062573;28;20214;-79
2022/11/25 11:37:43;;;;;;;12.65;3.10;;;16.20;99.90;;;;;;5064870;28;20214;-75
2022/11/25 11:40:38;;;;;;;12.63;3.13;;;16.10;99.90;;;;;;5068201;28;20178;-75
2022/11/25 11:43:35;;;;;;;11.40;3.00;;;15.90;99.90;;;;;;5058027;28;21129;-76
2022/11/25 11:46:13;;;;;;;11.45;3.33;;;15.80;99.90;;;;;;5062977;28;20191;-78
2022/11/25 11:48:42;;;;;;;10.93;2.90;;;15.70;99.90;;;;;;5060792;28;20258;-76
2022/11/25 11:51:34;;;;;;;13.30;3.22;;;15.70;99.90;;;;;;5071965;28;20186;-75
2022/11/25 11:54:09;;;;;;;11.57;3.03;;;15.60;99.90;;;;;;5064876;28;21942;-76
2022/11/25 11:56:45;;;;;;;9.05;2.80;;;15.60;99.90;;;;;;5068146;28;20283;-75
2022/11/25 11:59:45;;;;;;;9.77;3.10;;;15.50;99.90;;;;;;5071079;28;20574;-76
2022/11/25 12:02:30;;;;;;;11.75;2.92;;;15.60;99.90;;;;;;5067499;28;20218;-75
2022/11/25 12:05:20;;;;;;;14.18;3.35;;;15.70;99.90;;;;;;5065919;28;20189;-75
2022/11/25 12:07:49;;;;;;;12.38;2.75;;;15.70;99.90;;;;;;5071668;28;20179;-75
2022/11/25 12:10:30;;;;;;;9.77;2.92;;;15.70;99.90;;;;;;5071285;28;20193;-75
2022/11/25 12:13:12;;;;;;;17.60;3.03;;;15.80;99.90;;;;;;5070469;28;20179;-80
2022/11/25 12:16:03;;;;;;;16.65;3.50;;;15.80;99.90;;;;;;5060276;28;20213;-75
2022/11/25 12:18:53;;;;;;;13.02;3.45;;;15.80;99.90;;;;;;5059289;28;20166;-77
2022/11/25 12:21:22;;;;;;;10.32;3.00;;;15.80;99.90;;;;;;5067068;28;20190;-76
2022/11/25 12:23:56;;;;;;;11.73;3.13;;;15.80;99.90;;;;;;5064637;28;20183;-75
2022/11/25 12:26:34;;;;;;;13.43;3.05;;;15.80;99.90;;;;;;5058270;28;21370;-82
2022/11/25 12:29:08;;;;;;;12.38;3.10;;;15.80;99.90;;;;;;5057943;28;20182;-74
2022/11/25 12:31:57;;;;;;;16.42;3.33;;;15.90;99.90;;;;;;5071697;28;20179;-74
2022/11/25 12:34:34;;;;;;;12.43;2.97;;;15.80;99.90;;;;;;5061098;28;20193;-75
2022/11/25 12:37:09;;;;;;;13.20;2.55;;;15.80;99.90;;;;;;5061291;28;20221;-77
2022/11/25 12:39:59;;;;;;;14.27;3.00;;;15.80;99.90;;;;;;5078680;28;20182;-78
2022/11/25 12:42:29;;;;;;;12.65;2.88;;;15.80;99.90;;;;;;5067726;28;20170;-74
2022/11/25 12:45:14;;;;;;;14.60;3.03;;;15.70;99.90;;;;;;5068583;28;20236;-77
2022/11/25 12:47:39;;;;;;;17.25;3.00;;;15.60;99.90;;;;;;5058069;28;20270;-80
2022/11/25 12:50:13;;;;;;;14.05;2.90;;;15.60;99.90;;;;;;5069521;28;20186;-79
2022/11/25 12:52:49;;;;;;;17.58;3.20;;;15.70;99.90;;;;;;5057485;28;20205;-76
2022/11/25 12:55:19;;;;;;;13.02;2.72;;;15.80;99.90;;;;;;5073646;28;20304;-75
2022/11/25 12:57:53;;;;;;;17.75;2.97;;;15.90;99.90;;;;;;5063622;28;20258;-76
2022/11/25 13:00:24;;;;;;;14.82;3.20;;;16.00;99.90;;;;;;5073459;28;20175;-76
2022/11/25 13:03:04;;;;;;;17.48;3.17;;;16.20;99.90;;;;;;5062517;28;20233;-77
2022/11/25 13:05:45;;;;;;;13.63;3.15;;;16.30;99.90;;;;;;5059337;28;20181;-77
2022/11/25 13:08:28;;;;;;;12.32;3.20;;;16.40;99.90;;;;;;5058757;28;20650;-78
2022/11/25 13:10:53;;;;;;;16.05;3.20;;;16.60;99.90;;;;;;5055917;28;20187;-76
2022/11/25 13:13:42;;;;;;;14.50;3.17;;;16.60;99.90;;;;;;5065835;28;20244;-75
2022/11/25 13:16:08;;;;;;;12.85;2.70;;;16.70;99.90;;;;;;5060814;28;20210;-81